Southern Md Facility, MD

1:40 AM EST on December 25, 2014 (GMT -0500)
Hollywood | Change Station
CLOSE
Current Station
Personal Weather Station
Location: College Park, MD
Elevation: 105 ft
Nearby Weather Stations

Elev 105 ft 39.01 °N, 76.92 °W | Updated 8 seconds ago

Rain
Rain
57.2 °F
Feels Like 57.2 °F
N
5.8
Wind Variable Wind from NNE
Gusts 5.8 mph

Today
High -- | Low -- °F
--% Chance of Precip.
Yesterday
High -- | Low -- °F
Precip. -- in
7:24 AM 4:50 PM
Waxing Crescent, 14% visible
Pressure 29.61 in
Visibility 10.0 miles
Clouds Scattered Clouds 700 ft
Mostly Cloudy 1200 ft
Overcast 7000 ft
Dew Point 57 °F
Humidity 98%
Rainfall 0.00 in
Snow Depth Not available.
UV 0 out of 12
Pollen .10 out of 12
Air Quality Not available.
Flu Activity Not available.
METAR KCGS 250625Z AUTO 28004KT 10SM SCT007 BKN012 OVC070 14/14 A2961 RMK AO1

More Conditions Fewer Conditions

Pressure 29.61 in
Visibility 10.0 miles
Clouds Scattered Clouds 700 ft
Mostly Cloudy 1200 ft
Overcast 7000 ft
Dew Point 57 °F
Humidity 98%
Rainfall 0.00 in
Snow Depth Not available.
UV 0 out of 12
Pollen .10 out of 12
Air Quality Not available.
Flu Activity Not available.
METAR KCGS 250625Z AUTO 28004KT 10SM SCT007 BKN012 OVC070 14/14 A2961 RMK AO1

More Conditions Fewer Conditions

10-Day Weather Forecast

Almanac

Astronomy

Dec. 25, 2014 Rise Set
Actual Time
Civil Twilight
Nautical Twilight
Astronomical Twilight
Moon
Length of Visible Light
Length of Day
Tomorrow will be .
, % of the Moon is Illuminated

Today's Extremes

State Highs State Lows

Community

WunderPhotos

Upload Photos

1,780,249 photos uploaded!

WunderBlogs® & News

Nearby

Air Quality

  Air Quality AQ Index Pollutant
Not available.

Snow Depth

Station Depth Elevation

Earthquake Activity

City Distance Mag. Time & Date
Minimum magnitude displayed is 2.5.

Coastal Water Temperatures

Place Temperature

Nearby Weather Stations